createdAt,value
2022-11-05T00:02:32.481Z,69.28
2022-11-05T00:05:18.532Z,69.96
2022-11-05T00:08:11.020Z,70.46
2022-11-05T00:10:38.822Z,69.77
2022-11-05T00:13:26.361Z,70.72
2022-11-05T00:16:12.778Z,71.46
2022-11-05T00:18:40.154Z,71.05
2022-11-05T00:21:30.293Z,72.06
2022-11-05T00:24:19.250Z,71.98
2022-11-05T00:26:50.818Z,71.83
2022-11-05T00:29:18.190Z,71.89
2022-11-05T00:31:45.881Z,70.67
2022-11-05T00:34:13.476Z,71.18
2022-11-05T00:36:40.788Z,72.54
2022-11-05T00:39:08.083Z,71.95
2022-11-05T00:41:35.641Z,72.37
2022-11-05T00:44:41.539Z,71.77
2022-11-05T00:47:27.730Z,71.65
2022-11-05T00:49:54.998Z,71.68
2022-11-05T00:52:48.563Z,71.87
2022-11-05T00:55:15.898Z,70.39
2022-11-05T00:57:43.450Z,70.93
2022-11-05T01:00:11.837Z,70.62
2022-11-05T01:02:39.166Z,71.40
2022-11-05T01:05:07.037Z,71.08
2022-11-05T01:07:34.515Z,70.92
2022-11-05T01:10:01.917Z,71.34
2022-11-05T01:12:30.967Z,71.75
2022-11-05T01:14:58.294Z,72.40
2022-11-05T01:17:25.591Z,71.88
2022-11-05T01:19:53.156Z,71.25
2022-11-05T01:22:20.476Z,71.21
2022-11-05T01:24:47.759Z,70.94
2022-11-05T01:27:15.330Z,71.72
2022-11-05T01:29:42.836Z,72.39
2022-11-05T01:32:10.167Z,72.27
2022-11-05T01:34:37.815Z,72.57
2022-11-05T01:37:05.205Z,72.64
2022-11-05T01:39:32.519Z,71.74
2022-11-05T01:42:00.286Z,71.79
2022-11-05T01:44:54.292Z,72.04
2022-11-05T01:47:59.232Z,71.39
2022-11-05T01:50:47.422Z,71.68
2022-11-05T01:53:29.968Z,71.75
2022-11-05T01:56:08.814Z,72.02
2022-11-05T01:58:46.323Z,71.95
2022-11-05T02:01:13.628Z,72.09
2022-11-05T02:03:42.179Z,71.84
2022-11-05T02:06:10.474Z,72.11
2022-11-05T02:08:59.746Z,74.00
2022-11-05T02:11:27.647Z,73.08
2022-11-05T02:13:55.323Z,71.89
2022-11-05T02:16:48.895Z,73.52
2022-11-05T02:19:19.336Z,73.29
2022-11-05T02:22:12.834Z,73.96
2022-11-05T02:25:02.355Z,73.62
2022-11-05T02:27:37.747Z,73.97
2022-11-05T02:30:08.561Z,74.25
2022-11-05T02:33:05.117Z,74.50
2022-11-05T02:35:40.754Z,75.04
2022-11-05T02:38:23.742Z,74.53
2022-11-05T02:41:10.275Z,75.76
2022-11-05T02:43:47.316Z,75.23
2022-11-05T02:46:26.758Z,74.66
2022-11-05T02:49:09.672Z,74.07
2022-11-05T02:51:49.522Z,74.17
2022-11-05T02:54:20.964Z,74.25
2022-11-05T02:56:50.190Z,75.29
2022-11-05T02:59:17.496Z,74.72
2022-11-05T03:01:46.153Z,74.05
2022-11-05T03:04:16.671Z,73.74
2022-11-05T03:07:25.551Z,73.71
2022-11-05T03:10:13.666Z,73.69
2022-11-05T03:13:13.149Z,73.96
2022-11-05T03:16:19.422Z,73.71
2022-11-05T03:18:54.726Z,74.62
2022-11-05T03:21:34.502Z,73.72
2022-11-05T03:24:12.523Z,73.28
2022-11-05T03:27:00.510Z,73.62
2022-11-05T03:29:34.815Z,73.39
2022-11-05T03:32:03.421Z,73.15
2022-11-05T03:34:35.133Z,73.26
2022-11-05T03:37:04.170Z,73.69
2022-11-05T03:39:36.202Z,73.59
2022-11-05T03:42:05.695Z,72.65
2022-11-05T03:44:35.139Z,72.36
2022-11-05T03:47:06.031Z,72.17
2022-11-05T03:49:38.026Z,72.38
2022-11-05T03:52:12.299Z,72.67
2022-11-05T03:54:40.099Z,73.77
2022-11-05T03:57:15.163Z,72.90
2022-11-05T03:59:44.798Z,72.57
2022-11-05T04:02:13.696Z,73.02
2022-11-05T04:04:41.393Z,72.55
2022-11-05T04:07:28.819Z,73.79
2022-11-05T04:10:19.674Z,72.55
2022-11-05T04:13:05.392Z,72.72
2022-11-05T04:15:55.604Z,72.93
2022-11-05T04:18:23.071Z,73.35
2022-11-05T04:21:09.210Z,72.31
2022-11-05T04:23:55.204Z,73.13
2022-11-05T04:26:23.220Z,73.87
2022-11-05T04:29:09.889Z,73.39
2022-11-05T04:31:38.182Z,72.96
2022-11-05T04:34:05.649Z,73.00
2022-11-05T04:36:33.011Z,73.42
2022-11-05T04:39:00.687Z,74.09
2022-11-05T04:41:28.225Z,74.59
2022-11-05T04:43:55.570Z,74.11
2022-11-05T04:46:23.118Z,73.28
2022-11-05T04:48:50.454Z,73.87
2022-11-05T04:51:17.850Z,74.75
2022-11-05T04:53:45.431Z,74.35
2022-11-05T04:56:18.234Z,73.52
2022-11-05T04:58:45.835Z,73.28
2022-11-05T05:01:18.029Z,73.77
2022-11-05T05:03:49.974Z,73.41
2022-11-05T05:06:18.592Z,73.56
2022-11-05T05:08:51.021Z,72.86
2022-11-05T05:11:20.385Z,72.94
2022-11-05T05:13:48.658Z,72.33
2022-11-05T05:16:24.690Z,72.13
2022-11-05T05:18:52.578Z,71.99
2022-11-05T05:21:39.156Z,72.98
2022-11-05T05:24:13.991Z,72.17
2022-11-05T05:26:46.234Z,72.45
2022-11-05T05:29:14.001Z,71.85
2022-11-05T05:31:41.751Z,72.08
2022-11-05T05:34:11.816Z,71.61
2022-11-05T05:36:39.463Z,72.07
2022-11-05T05:39:07.889Z,71.57
2022-11-05T05:41:35.208Z,71.02
2022-11-05T05:44:05.241Z,71.88
2022-11-05T05:46:32.523Z,71.48
2022-11-05T05:48:59.887Z,71.84
2022-11-05T05:51:27.440Z,72.03
2022-11-05T05:53:54.915Z,71.13
2022-11-05T05:56:22.261Z,72.50
2022-11-05T05:58:49.853Z,71.71
2022-11-05T06:01:19.645Z,71.37
2022-11-05T06:03:48.741Z,71.45
2022-11-05T06:06:19.707Z,70.80
2022-11-05T06:08:48.018Z,71.73
2022-11-05T06:11:15.597Z,71.27
2022-11-05T06:13:42.920Z,70.45
2022-11-05T06:16:10.484Z,70.23
2022-11-05T06:18:38.281Z,69.86
2022-11-05T06:21:11.152Z,69.80
2022-11-05T06:23:39.950Z,69.85
2022-11-05T06:26:09.585Z,70.37
2022-11-05T06:28:37.239Z,69.91
2022-11-05T06:31:04.987Z,70.66
2022-11-05T06:33:32.276Z,72.24
2022-11-05T06:36:01.075Z,71.55
2022-11-05T06:38:32.065Z,70.78
2022-11-05T06:40:59.727Z,70.38
2022-11-05T06:43:28.278Z,70.14
2022-11-05T06:45:56.559Z,70.90
2022-11-05T06:48:25.370Z,70.62
2022-11-05T06:50:52.720Z,71.49
2022-11-05T06:53:20.318Z,71.71
2022-11-05T06:55:47.984Z,71.42
2022-11-05T06:58:15.747Z,71.35
2022-11-05T07:00:43.350Z,71.01
2022-11-05T07:03:11.983Z,70.53
2022-11-05T07:05:43.993Z,69.85
2022-11-05T07:08:11.589Z,70.18
2022-11-05T07:10:38.934Z,69.83
2022-11-05T07:13:08.339Z,69.51
2022-11-05T07:15:37.564Z,69.31
2022-11-05T07:18:07.323Z,68.55
2022-11-05T07:20:35.072Z,67.79
2022-11-05T07:23:12.223Z,68.56
2022-11-05T07:25:40.498Z,68.32
2022-11-05T07:28:08.350Z,68.44
2022-11-05T07:30:35.921Z,68.31
2022-11-05T07:33:03.824Z,68.88
2022-11-05T07:35:31.554Z,68.53
2022-11-05T07:37:59.181Z,68.46
2022-11-05T07:40:28.187Z,69.21
2022-11-05T07:42:57.831Z,69.25
2022-11-05T07:45:26.452Z,69.26
2022-11-05T07:47:56.051Z,68.78
2022-11-05T07:50:25.131Z,67.83
2022-11-05T07:52:52.555Z,67.82
2022-11-05T07:55:20.379Z,66.56
2022-11-05T07:57:49.521Z,66.09
2022-11-05T08:00:20.401Z,66.94
2022-11-05T08:03:07.787Z,66.77
2022-11-05T08:05:38.534Z,65.92
2022-11-05T08:08:12.048Z,67.23
2022-11-05T08:10:39.478Z,65.65
2022-11-05T08:13:07.942Z,65.07
2022-11-05T08:15:35.992Z,65.17
2022-11-05T08:18:21.236Z,64.56
2022-11-05T08:20:49.204Z,64.05
2022-11-05T08:23:16.553Z,63.89
2022-11-05T08:25:43.872Z,64.05
2022-11-05T08:28:12.882Z,64.56
2022-11-05T08:30:40.705Z,64.23
2022-11-05T08:33:10.957Z,64.22
2022-11-05T08:35:39.385Z,64.76
2022-11-05T08:38:08.070Z,64.00
2022-11-05T08:40:36.147Z,63.84
2022-11-05T08:43:05.564Z,63.91
2022-11-05T08:45:33.956Z,62.09
2022-11-05T08:48:02.792Z,63.50
2022-11-05T08:50:30.876Z,62.95
2022-11-05T08:52:58.648Z,62.62
2022-11-05T08:55:26.716Z,63.53
2022-11-05T08:57:58.354Z,63.92
2022-11-05T09:00:26.516Z,63.01
2022-11-05T09:02:54.350Z,62.92
2022-11-05T09:05:21.682Z,62.49
2022-11-05T09:07:49.509Z,62.14
2022-11-05T09:10:17.076Z,63.71
2022-11-05T09:12:44.626Z,62.84
2022-11-05T09:15:11.982Z,63.35
2022-11-05T09:17:40.019Z,63.31
2022-11-05T09:20:08.546Z,63.11
2022-11-05T09:22:39.236Z,63.27
2022-11-05T09:25:10.584Z,63.83
2022-11-05T09:27:37.915Z,63.63
2022-11-05T09:30:05.590Z,63.22
2022-11-05T09:32:33.302Z,63.77
2022-11-05T09:35:01.231Z,63.53
2022-11-05T09:37:29.257Z,63.88
2022-11-05T09:39:56.829Z,62.66
2022-11-05T09:42:30.071Z,62.67
2022-11-05T09:45:01.333Z,63.21
2022-11-05T09:47:39.761Z,62.55
2022-11-05T09:50:09.582Z,62.30
2022-11-05T09:52:36.889Z,62.36
2022-11-05T09:55:14.923Z,62.66
2022-11-05T09:57:46.433Z,62.54
2022-11-05T10:00:16.873Z,61.01
2022-11-05T10:02:54.924Z,61.19
2022-11-05T10:05:24.323Z,62.43
2022-11-05T10:07:59.414Z,62.21
2022-11-05T10:10:26.690Z,62.12
2022-11-05T10:12:57.385Z,61.33
2022-11-05T10:15:34.633Z,60.88
2022-11-05T10:18:14.203Z,61.77
2022-11-05T10:20:42.836Z,60.10
2022-11-05T10:23:13.000Z,60.09
2022-11-05T10:25:44.007Z,61.37
2022-11-05T10:28:17.273Z,61.39
2022-11-05T10:30:46.940Z,61.82
2022-11-05T10:35:51.399Z,60.59
2022-11-05T10:38:18.993Z,61.40
2022-11-05T10:41:09.373Z,61.67
2022-11-05T10:43:40.809Z,61.35
2022-11-05T10:46:23.829Z,60.97
2022-11-05T10:49:07.351Z,61.40
2022-11-05T10:51:34.914Z,61.48
2022-11-05T10:54:09.942Z,61.26
2022-11-05T10:56:39.272Z,60.71
2022-11-05T10:59:26.126Z,61.00
2022-11-05T11:02:22.238Z,60.92
2022-11-05T11:04:53.917Z,61.54
2022-11-05T11:07:25.473Z,61.56
2022-11-05T11:09:53.314Z,61.21
2022-11-05T11:12:24.172Z,61.08
2022-11-05T11:15:02.219Z,61.45
2022-11-05T11:17:32.332Z,62.44
2022-11-05T11:20:24.453Z,61.92
2022-11-05T11:23:13.938Z,63.23
2022-11-05T11:25:52.993Z,62.81
2022-11-05T11:28:32.832Z,62.79
2022-11-05T11:31:03.067Z,62.21
2022-11-05T11:33:31.728Z,62.98
2022-11-05T11:36:00.053Z,62.39
2022-11-05T11:38:31.936Z,62.86
2022-11-05T11:41:07.207Z,63.00
2022-11-05T11:43:36.922Z,62.03
2022-11-05T11:46:09.876Z,62.45
2022-11-05T11:48:40.891Z,62.86
2022-11-05T11:51:40.545Z,62.42
2022-11-05T11:54:19.401Z,63.43
2022-11-05T11:56:48.265Z,62.60
2022-11-05T12:00:06.736Z,62.90
2022-11-05T12:02:42.887Z,62.70
2022-11-05T12:05:18.212Z,62.59
2022-11-05T12:07:49.714Z,62.66
2022-11-05T12:10:51.603Z,62.13
2022-11-05T12:13:18.813Z,61.54
2022-11-05T12:16:14.647Z,61.50
2022-11-05T12:18:53.026Z,60.97
2022-11-05T12:21:54.045Z,61.93
2022-11-05T12:24:37.519Z,61.23
2022-11-05T12:27:08.044Z,61.44
2022-11-05T12:30:02.925Z,61.38
2022-11-05T12:32:47.316Z,61.64
2022-11-05T12:35:34.681Z,61.21
2022-11-05T12:38:25.044Z,60.89
2022-11-05T12:41:05.890Z,60.56
2022-11-05T12:44:13.202Z,60.37
2022-11-05T12:47:06.336Z,61.60
2022-11-05T12:49:37.999Z,61.02
2022-11-05T12:52:14.808Z,60.70
2022-11-05T12:54:58.722Z,60.83
2022-11-05T12:57:26.993Z,60.72
2022-11-05T13:00:04.279Z,61.13
2022-11-05T13:02:34.562Z,60.87
2022-11-05T13:05:23.691Z,60.96
2022-11-05T13:08:00.101Z,60.59
2022-11-05T13:10:41.414Z,61.29
2022-11-05T13:13:15.686Z,60.39
2022-11-05T13:15:50.819Z,60.22
2022-11-05T13:18:23.998Z,60.52
2022-11-05T13:20:53.779Z,60.62
2022-11-05T13:23:29.711Z,61.05
2022-11-05T13:26:14.475Z,59.76
2022-11-05T13:28:51.996Z,61.04
2022-11-05T13:31:21.847Z,60.71
2022-11-05T13:33:51.201Z,61.53
2022-11-05T13:36:50.611Z,60.80
2022-11-05T13:39:23.961Z,59.85
2022-11-05T13:42:19.998Z,59.91
2022-11-05T13:44:57.844Z,60.36
2022-11-05T13:47:38.531Z,60.69
2022-11-05T13:50:36.840Z,61.61
2022-11-05T13:53:22.699Z,62.07
2022-11-05T13:56:26.050Z,62.55
2022-11-05T13:58:56.061Z,61.30
2022-11-05T14:01:30.186Z,61.63
2022-11-05T14:03:57.920Z,61.30
2022-11-05T14:06:30.176Z,61.56
2022-11-05T14:09:01.762Z,61.07
2022-11-05T14:11:34.316Z,61.02
2022-11-05T14:14:05.452Z,61.00
2022-11-05T14:16:54.359Z,62.30
2022-11-05T14:19:32.780Z,63.71
2022-11-05T14:22:00.453Z,62.32
2022-11-05T14:24:42.712Z,62.08
2022-11-05T14:27:13.081Z,61.62
2022-11-05T14:29:42.647Z,62.27
2022-11-05T14:32:41.920Z,62.87
2022-11-05T14:35:15.394Z,62.68
2022-11-05T14:37:58.764Z,62.55
2022-11-05T14:40:39.107Z,62.25
2022-11-05T14:43:21.856Z,62.57
2022-11-05T14:46:00.792Z,62.57
2022-11-05T14:49:09.276Z,62.43
2022-11-05T14:51:44.220Z,63.38
2022-11-05T14:54:25.098Z,62.00
2022-11-05T14:57:00.801Z,61.49
2022-11-05T14:59:28.303Z,61.74
2022-11-05T15:02:13.699Z,61.32
2022-11-05T15:04:45.282Z,61.39
2022-11-05T15:07:21.902Z,61.13
2022-11-05T15:10:10.597Z,60.69
2022-11-05T15:12:42.459Z,61.15
2022-11-05T15:15:21.288Z,60.66
2022-11-05T15:18:02.043Z,60.73
2022-11-05T15:20:40.569Z,60.87
2022-11-05T15:23:12.958Z,60.50
2022-11-05T15:25:42.818Z,60.61
2022-11-05T15:28:29.248Z,60.93
2022-11-05T15:31:04.753Z,60.77
2022-11-05T15:33:32.837Z,61.24
2022-11-05T15:36:09.237Z,61.40
2022-11-05T15:41:16.043Z,62.01
2022-11-05T15:43:48.356Z,61.87
2022-11-05T15:46:28.172Z,61.69
2022-11-05T15:48:58.398Z,61.50
2022-11-05T15:51:26.410Z,61.48
2022-11-05T15:54:16.092Z,60.89
2022-11-05T15:56:52.472Z,61.85
2022-11-05T15:59:21.502Z,62.13
2022-11-05T16:01:51.849Z,62.23
2022-11-05T16:04:20.696Z,62.94
2022-11-05T16:06:51.054Z,62.32
2022-11-05T16:09:39.934Z,62.37
2022-11-05T16:12:19.722Z,63.01
2022-11-05T16:14:59.960Z,62.51
2022-11-05T16:17:50.903Z,63.53
2022-11-05T16:20:29.616Z,63.20
2022-11-05T16:23:02.377Z,62.93
2022-11-05T16:25:31.406Z,63.49
2022-11-05T16:27:59.787Z,63.11
2022-11-05T16:30:28.379Z,64.47
2022-11-05T16:33:03.432Z,64.27
2022-11-05T16:35:31.026Z,63.59
2022-11-05T16:38:01.071Z,64.74
2022-11-05T16:40:29.385Z,64.74
2022-11-05T16:43:09.320Z,64.70
2022-11-05T16:45:41.246Z,64.53
2022-11-05T16:48:11.165Z,63.79
2022-11-05T16:50:38.582Z,64.18
2022-11-05T16:53:05.927Z,64.07
2022-11-05T16:55:33.707Z,64.23
2022-11-05T16:58:01.027Z,63.86
2022-11-05T17:00:28.493Z,64.16
2022-11-05T17:02:56.476Z,65.03
2022-11-05T17:05:24.834Z,64.28
2022-11-05T17:07:52.652Z,64.54
2022-11-05T17:10:22.115Z,63.99
2022-11-05T17:12:49.771Z,64.26
2022-11-05T17:15:19.819Z,64.18
2022-11-05T17:17:47.474Z,64.23
2022-11-05T17:20:38.564Z,64.59
2022-11-05T17:23:10.727Z,64.52
2022-11-05T17:25:39.396Z,64.66
2022-11-05T17:28:06.804Z,64.84
2022-11-05T17:30:39.412Z,65.52
2022-11-05T17:33:10.741Z,66.82
2022-11-05T17:35:39.964Z,65.61
2022-11-05T17:38:07.709Z,66.10
2022-11-05T17:40:35.869Z,66.45
2022-11-05T17:43:03.798Z,67.07
2022-11-05T17:45:31.495Z,66.66
2022-11-05T17:47:58.786Z,67.26
2022-11-05T17:50:26.349Z,67.32
2022-11-05T17:52:53.661Z,67.65
2022-11-05T17:55:21.123Z,68.76
2022-11-05T17:57:50.427Z,68.39
2022-11-05T18:00:21.013Z,68.87
2022-11-05T18:02:49.652Z,68.10
2022-11-05T18:05:17.993Z,68.21
2022-11-05T18:07:46.015Z,68.28
2022-11-05T18:10:14.132Z,68.81
2022-11-05T18:12:41.552Z,69.87
2022-11-05T18:15:09.600Z,69.39
2022-11-05T18:17:37.202Z,69.94
2022-11-05T18:20:09.910Z,69.13
2022-11-05T18:22:41.295Z,68.61
2022-11-05T18:25:10.213Z,68.41
2022-11-05T18:27:37.716Z,67.69
2022-11-05T18:30:05.928Z,67.27
2022-11-05T18:32:33.411Z,67.36
2022-11-05T18:35:01.114Z,67.26
2022-11-05T18:37:28.826Z,66.72
2022-11-05T18:39:56.174Z,66.80
2022-11-05T18:42:23.569Z,66.59
2022-11-05T18:44:53.935Z,72.60
2022-11-05T18:47:21.287Z,68.83
2022-11-05T18:49:48.600Z,67.31
2022-11-05T18:52:16.518Z,66.97
2022-11-05T18:54:44.118Z,66.60
2022-11-05T18:57:11.450Z,66.82
2022-11-05T18:59:41.999Z,66.96
2022-11-05T19:02:11.349Z,67.30
2022-11-05T19:04:39.481Z,66.94
2022-11-05T19:07:08.176Z,67.04
2022-11-05T19:09:36.769Z,66.68
2022-11-05T19:12:05.573Z,66.49
2022-11-05T19:14:33.627Z,67.48
2022-11-05T19:17:01.479Z,68.48
2022-11-05T19:19:29.175Z,67.00
2022-11-05T19:21:57.048Z,66.70
2022-11-05T19:24:24.520Z,67.51
2022-11-05T19:26:52.159Z,67.24
2022-11-05T19:29:19.462Z,67.77
2022-11-05T19:31:46.921Z,67.67
2022-11-05T19:34:14.738Z,67.97
2022-11-05T19:36:42.539Z,67.79
2022-11-05T19:39:13.274Z,68.06
2022-11-05T19:41:41.050Z,68.55
2022-11-05T19:44:08.575Z,69.05
2022-11-05T19:46:35.916Z,68.69
2022-11-05T19:49:03.562Z,68.83
2022-11-05T19:51:32.234Z,68.58
2022-11-05T19:54:01.238Z,67.49
2022-11-05T19:56:30.694Z,67.79
2022-11-05T19:58:58.766Z,67.79
2022-11-05T20:01:27.593Z,67.90
2022-11-05T20:03:56.772Z,68.05
2022-11-05T20:06:32.888Z,68.04
2022-11-05T20:11:50.892Z,68.92
2022-11-05T20:14:18.486Z,68.18
2022-11-05T20:16:46.306Z,68.43
2022-11-05T20:19:17.087Z,68.52
2022-11-05T20:21:45.063Z,68.59
2022-11-05T20:24:18.823Z,68.25
2022-11-05T20:26:51.973Z,68.15
2022-11-05T20:29:19.304Z,67.71
2022-11-05T20:31:46.684Z,68.06
2022-11-05T20:34:14.251Z,68.33
2022-11-05T20:36:41.547Z,68.67
2022-11-05T20:39:10.095Z,68.08
2022-11-05T20:41:37.937Z,68.07
2022-11-05T20:44:05.295Z,67.86
2022-11-05T20:46:32.929Z,68.02
2022-11-05T20:49:00.522Z,68.54
2022-11-05T20:51:27.834Z,68.36
2022-11-05T20:54:00.215Z,68.21
2022-11-05T20:56:30.097Z,67.62
2022-11-05T20:58:58.858Z,67.88
2022-11-05T21:01:27.643Z,67.47
2022-11-05T21:03:55.756Z,67.76
2022-11-05T21:06:23.590Z,68.37
2022-11-05T21:08:51.962Z,68.46
2022-11-05T21:11:19.945Z,68.11
2022-11-05T21:13:47.644Z,68.30
2022-11-05T21:16:18.426Z,68.45
2022-11-05T21:18:47.137Z,68.43
2022-11-05T21:21:16.870Z,68.34
2022-11-05T21:23:44.633Z,68.22
2022-11-05T21:26:13.995Z,68.08
2022-11-05T21:28:41.715Z,68.51
2022-11-05T21:31:09.418Z,68.17
2022-11-05T21:33:37.532Z,68.57
2022-11-05T21:36:07.027Z,68.05
2022-11-05T21:38:34.350Z,68.14
2022-11-05T21:41:02.794Z,68.88
2022-11-05T21:43:30.176Z,68.73
2022-11-05T21:46:01.148Z,68.79
2022-11-05T21:48:28.758Z,68.48
2022-11-05T21:51:15.266Z,68.73
2022-11-05T21:54:01.188Z,68.58
2022-11-05T21:56:47.691Z,68.08
2022-11-05T21:59:36.096Z,68.67
2022-11-05T22:02:03.750Z,68.86
2022-11-05T22:04:36.074Z,68.67
2022-11-05T22:07:04.460Z,69.00
2022-11-05T22:09:32.032Z,69.22
2022-11-05T22:11:59.683Z,69.36
2022-11-05T22:14:27.091Z,68.56
2022-11-05T22:16:54.697Z,68.42
2022-11-05T22:19:22.644Z,69.21
2022-11-05T22:21:50.080Z,69.54
2022-11-05T22:24:18.199Z,69.61
2022-11-05T22:26:45.558Z,69.74
2022-11-05T22:29:13.194Z,69.02
2022-11-05T22:31:41.335Z,69.22
2022-11-05T22:34:09.900Z,69.83
2022-11-05T22:36:37.201Z,69.49
2022-11-05T22:39:05.268Z,69.48
2022-11-05T22:41:32.902Z,69.33
2022-11-05T22:44:00.210Z,69.05
2022-11-05T22:46:27.818Z,69.41
2022-11-05T22:48:56.231Z,69.55
2022-11-05T22:51:25.871Z,69.56
2022-11-05T22:53:54.811Z,69.18
2022-11-05T22:56:25.130Z,69.31
2022-11-05T22:58:53.550Z,69.56
2022-11-05T23:01:22.424Z,69.12
2022-11-05T23:03:52.747Z,69.11
2022-11-05T23:06:41.392Z,69.37
2022-11-05T23:09:33.327Z,69.07
2022-11-05T23:12:01.638Z,69.49
2022-11-05T23:14:29.011Z,69.31
2022-11-05T23:17:14.974Z,69.07
2022-11-05T23:20:01.469Z,68.76
2022-11-05T23:22:49.453Z,68.80
2022-11-05T23:25:20.116Z,69.11
2022-11-05T23:27:51.517Z,69.36
2022-11-05T23:30:25.053Z,69.25
2022-11-05T23:32:53.019Z,69.61
2022-11-05T23:35:39.245Z,70.73
2022-11-05T23:38:25.169Z,69.77
2022-11-05T23:41:11.423Z,69.23
2022-11-05T23:43:57.511Z,69.42
2022-11-05T23:46:43.403Z,69.34
2022-11-05T23:49:10.695Z,69.42
2022-11-05T23:51:38.306Z,68.88
2022-11-05T23:54:05.663Z,68.93
2022-11-05T23:56:33.096Z,68.69
2022-11-05T23:59:00.698Z,68.70
